createdAt,value
2018-08-29T00:01:04.014Z,6.13
2018-08-29T00:04:08.563Z,6.77
2018-08-29T00:07:17.421Z,6.27
2018-08-29T00:10:21.162Z,7.20
2018-08-29T00:13:24.772Z,6.87
2018-08-29T00:16:28.507Z,6.70
2018-08-29T00:19:32.162Z,7.17
2018-08-29T00:22:35.742Z,6.40
2018-08-29T00:25:39.425Z,7.33
2018-08-29T00:28:43.091Z,7.23
2018-08-29T00:31:46.721Z,6.53
2018-08-29T00:34:50.433Z,6.90
2018-08-29T00:37:54.016Z,6.87
2018-08-29T00:40:57.705Z,7.00
2018-08-29T00:44:01.441Z,6.40
2018-08-29T00:47:05.220Z,7.17
2018-08-29T00:50:08.863Z,6.77
2018-08-29T00:53:12.500Z,6.70
2018-08-29T00:56:16.266Z,6.27
2018-08-29T00:59:19.997Z,6.60
2018-08-29T01:02:23.551Z,6.67
2018-08-29T01:05:27.190Z,7.57
2018-08-29T01:08:30.856Z,6.57
2018-08-29T01:11:34.738Z,7.00
2018-08-29T01:14:38.416Z,6.97
2018-08-29T01:17:42.126Z,6.40
2018-08-29T01:20:45.823Z,6.20
2018-08-29T01:23:49.470Z,6.77
2018-08-29T01:26:53.186Z,6.00
2018-08-29T01:29:56.867Z,6.37
2018-08-29T01:33:00.563Z,6.77
2018-08-29T01:36:04.227Z,6.27
2018-08-29T01:39:09.717Z,6.90
2018-08-29T01:42:13.333Z,6.63
2018-08-29T01:45:16.924Z,6.57
2018-08-29T01:48:21.561Z,6.43
2018-08-29T01:51:25.117Z,6.60
2018-08-29T01:54:28.756Z,6.23
2018-08-29T01:57:32.609Z,6.60
2018-08-29T02:00:36.301Z,5.93
2018-08-29T02:03:40.044Z,6.40
2018-08-29T02:06:43.743Z,6.57
2018-08-29T02:09:47.526Z,6.03
2018-08-29T02:12:51.196Z,6.30
2018-08-29T02:15:54.806Z,6.97
2018-08-29T02:18:58.410Z,6.33
2018-08-29T02:22:02.537Z,6.63
2018-08-29T02:25:07.123Z,5.90
2018-08-29T02:28:10.743Z,6.60
2018-08-29T02:31:14.465Z,6.40
2018-08-29T02:34:18.206Z,7.10
2018-08-29T02:37:21.846Z,7.10
2018-08-29T02:40:25.496Z,6.90
2018-08-29T02:43:30.178Z,7.13
2018-08-29T02:46:33.868Z,6.77
2018-08-29T02:49:37.573Z,7.20
2018-08-29T02:52:41.352Z,7.03
2018-08-29T02:55:44.933Z,7.30
2018-08-29T02:58:48.583Z,6.83
2018-08-29T03:01:52.243Z,6.87
2018-08-29T03:04:56.676Z,7.20
2018-08-29T03:08:00.466Z,7.17
2018-08-29T03:11:04.112Z,7.10
2018-08-29T03:14:07.729Z,6.83
2018-08-29T03:17:11.538Z,7.47
2018-08-29T03:20:15.213Z,7.60
2018-08-29T03:23:18.828Z,7.03
2018-08-29T03:26:22.641Z,7.67
2018-08-29T03:29:26.227Z,7.80
2018-08-29T03:32:29.969Z,7.63
2018-08-29T03:35:34.277Z,7.70
2018-08-29T03:38:37.988Z,6.97
2018-08-29T03:41:41.623Z,7.90
2018-08-29T03:44:45.289Z,7.77
2018-08-29T03:47:49.040Z,7.50
2018-08-29T03:50:52.796Z,7.53
2018-08-29T03:53:56.457Z,7.50
2018-08-29T03:57:00.004Z,7.33
2018-08-29T04:00:03.709Z,7.73
2018-08-29T04:03:08.309Z,7.10
2018-08-29T04:06:12.103Z,7.43
2018-08-29T04:09:15.792Z,8.13
2018-08-29T04:12:19.485Z,7.30
2018-08-29T04:15:23.214Z,8.73
2018-08-29T04:18:26.952Z,7.40
2018-08-29T04:21:30.617Z,8.67
2018-08-29T04:24:34.376Z,8.10
2018-08-29T04:27:38.160Z,7.60
2018-08-29T04:30:41.883Z,9.13
2018-08-29T04:33:45.735Z,7.83
2018-08-29T04:36:49.490Z,8.27
2018-08-29T04:39:53.129Z,8.50
2018-08-29T04:42:56.784Z,8.50
2018-08-29T04:46:00.470Z,7.80
2018-08-29T04:49:04.093Z,8.30
2018-08-29T04:52:07.962Z,7.67
2018-08-29T04:55:11.659Z,7.87
2018-08-29T04:58:15.294Z,8.27
2018-08-29T05:01:19.036Z,8.60
2018-08-29T05:04:22.848Z,8.00
2018-08-29T05:07:26.720Z,7.83
2018-08-29T05:10:30.399Z,7.60
2018-08-29T05:13:34.050Z,8.93
2018-08-29T05:16:39.469Z,8.43
2018-08-29T05:19:43.080Z,8.90
2018-08-29T05:22:46.666Z,8.13
2018-08-29T05:25:50.404Z,7.83
2018-08-29T05:28:54.030Z,8.70
2018-08-29T05:31:57.880Z,9.10
2018-08-29T05:35:01.640Z,8.80
2018-08-29T05:38:05.268Z,8.50
2018-08-29T05:41:09.016Z,9.13
2018-08-29T05:44:12.899Z,8.30
2018-08-29T05:47:16.669Z,8.63
2018-08-29T05:50:20.219Z,8.30
2018-08-29T05:53:23.998Z,8.73
2018-08-29T05:56:27.650Z,9.30
2018-08-29T05:59:31.315Z,8.77
2018-08-29T06:02:34.952Z,8.63
2018-08-29T06:05:38.683Z,9.20
2018-08-29T06:08:42.335Z,8.70
2018-08-29T06:11:45.953Z,9.10
2018-08-29T06:14:49.625Z,8.23
2018-08-29T06:17:53.269Z,8.83
2018-08-29T06:20:57.008Z,9.33
2018-08-29T06:24:00.673Z,9.43
2018-08-29T06:27:04.341Z,8.60
2018-08-29T06:30:08.116Z,8.43
2018-08-29T06:33:11.850Z,8.93
2018-08-29T06:36:15.564Z,9.87
2018-08-29T06:39:19.182Z,8.60
2018-08-29T06:42:22.900Z,8.97
2018-08-29T06:45:26.615Z,8.50
2018-08-29T06:48:30.289Z,8.80
2018-08-29T06:51:34.210Z,9.33
2018-08-29T06:54:37.968Z,8.20
2018-08-29T06:57:41.610Z,9.00
2018-08-29T07:00:45.355Z,8.40
2018-08-29T07:03:48.959Z,9.10
2018-08-29T07:06:52.730Z,8.67
2018-08-29T07:09:56.367Z,8.20
2018-08-29T07:13:00.081Z,8.70
2018-08-29T07:16:03.831Z,9.20
2018-08-29T07:19:08.773Z,8.30
2018-08-29T07:22:12.575Z,8.30
2018-08-29T07:25:16.907Z,8.27
2018-08-29T07:28:20.701Z,8.47
2018-08-29T07:31:24.635Z,8.83
2018-08-29T07:34:28.405Z,8.70
2018-08-29T07:37:32.147Z,7.80
2018-08-29T07:40:35.846Z,8.67
2018-08-29T07:43:39.469Z,8.77
2018-08-29T07:46:43.214Z,8.57
2018-08-29T07:49:46.944Z,8.73
2018-08-29T07:52:50.561Z,8.40
2018-08-29T07:55:54.254Z,8.80
2018-08-29T07:58:57.940Z,8.47
2018-08-29T08:02:01.620Z,7.87
2018-08-29T08:05:05.358Z,8.93
2018-08-29T08:08:09.133Z,8.63
2018-08-29T08:11:12.734Z,8.37
2018-08-29T08:14:16.367Z,8.43
2018-08-29T08:17:19.979Z,8.87
2018-08-29T08:20:23.636Z,8.53
2018-08-29T08:23:27.374Z,9.20
2018-08-29T08:26:31.070Z,8.27
2018-08-29T08:29:34.716Z,8.83
2018-08-29T08:32:38.692Z,8.80
2018-08-29T08:35:42.445Z,7.90
2018-08-29T08:38:46.136Z,8.50
2018-08-29T08:41:49.943Z,8.63
2018-08-29T08:44:53.776Z,8.17
2018-08-29T08:47:57.478Z,8.47
2018-08-29T08:51:01.435Z,8.60
2018-08-29T08:54:06.141Z,8.60
2018-08-29T08:57:09.813Z,7.93
2018-08-29T09:00:13.529Z,8.67
2018-08-29T09:03:17.282Z,8.30
2018-08-29T09:06:21.166Z,9.03
2018-08-29T09:09:24.841Z,8.40
2018-08-29T09:12:28.528Z,8.20
2018-08-29T09:15:32.329Z,8.43
2018-08-29T09:18:36.031Z,7.93
2018-08-29T09:21:39.816Z,8.60
2018-08-29T09:24:43.418Z,8.20
2018-08-29T09:27:47.132Z,7.80
2018-08-29T09:30:51.844Z,8.17
2018-08-29T09:33:55.481Z,8.17
2018-08-29T09:36:59.081Z,8.17
2018-08-29T09:40:02.910Z,7.90
2018-08-29T09:43:06.605Z,7.90
2018-08-29T09:46:10.387Z,7.80
2018-08-29T09:49:14.130Z,8.30
2018-08-29T09:52:17.790Z,8.20
2018-08-29T09:55:21.480Z,8.53
2018-08-29T09:58:25.137Z,8.77
2018-08-29T10:01:34.171Z,7.33
2018-08-29T10:04:38.667Z,7.77
2018-08-29T10:07:42.354Z,7.43
2018-08-29T10:10:46.020Z,8.40
2018-08-29T10:13:49.677Z,7.93
2018-08-29T10:16:53.539Z,8.20
2018-08-29T10:19:58.386Z,7.90
2018-08-29T10:23:02.081Z,7.80
2018-08-29T10:26:05.880Z,8.07
2018-08-29T10:29:10.337Z,7.63
2018-08-29T10:32:14.005Z,7.93
2018-08-29T10:35:17.761Z,7.77
2018-08-29T10:38:22.138Z,7.83
2018-08-29T10:41:25.921Z,7.40
2018-08-29T10:44:29.706Z,7.20
2018-08-29T10:47:33.482Z,7.80
2018-08-29T10:50:37.240Z,8.50
2018-08-29T10:53:40.905Z,7.50
2018-08-29T10:56:44.645Z,7.60
2018-08-29T10:59:48.310Z,7.90
2018-08-29T11:02:52.259Z,8.07
2018-08-29T11:05:56.126Z,7.50
2018-08-29T11:08:59.841Z,7.50
2018-08-29T11:12:03.602Z,7.70
2018-08-29T11:15:07.332Z,8.00
2018-08-29T11:18:11.052Z,8.10
2018-08-29T11:21:14.777Z,7.50
2018-08-29T11:24:18.482Z,8.17
2018-08-29T11:27:22.145Z,8.60
2018-08-29T11:30:25.912Z,7.70
2018-08-29T11:33:29.661Z,7.97
2018-08-29T11:36:33.318Z,8.13
2018-08-29T11:39:37.035Z,8.30
2018-08-29T11:42:40.746Z,7.90
2018-08-29T11:45:44.287Z,7.80
2018-08-29T11:48:47.997Z,8.47
2018-08-29T11:51:51.813Z,8.60
2018-08-29T11:54:55.474Z,8.50
2018-08-29T11:57:59.177Z,8.40
2018-08-29T12:01:02.919Z,8.00
2018-08-29T12:04:06.583Z,8.30
2018-08-29T12:07:10.182Z,7.93
2018-08-29T12:10:13.858Z,8.50
2018-08-29T12:13:17.467Z,8.90
2018-08-29T12:16:21.126Z,9.13
2018-08-29T12:19:24.889Z,8.67
2018-08-29T12:22:28.632Z,8.37
2018-08-29T12:25:32.260Z,8.40
2018-08-29T12:28:36.093Z,8.00
2018-08-29T12:31:40.027Z,8.70
2018-08-29T12:34:45.934Z,8.23
2018-08-29T12:37:49.724Z,9.37
2018-08-29T12:40:56.535Z,9.17
2018-08-29T12:44:00.270Z,8.60
2018-08-29T12:47:04.067Z,8.60
2018-08-29T12:50:10.871Z,9.50
2018-08-29T12:53:14.502Z,8.87
2018-08-29T12:56:18.195Z,9.10
2018-08-29T12:59:21.857Z,8.70
2018-08-29T13:02:25.577Z,9.50
2018-08-29T13:05:29.291Z,8.80
2018-08-29T13:08:35.917Z,8.70
2018-08-29T13:11:39.756Z,8.40
2018-08-29T13:14:43.595Z,9.20
2018-08-29T13:17:47.142Z,8.60
2018-08-29T13:20:50.812Z,8.50
2018-08-29T13:23:54.412Z,8.43
2018-08-29T13:26:58.277Z,8.40
2018-08-29T13:30:01.989Z,8.50
2018-08-29T13:33:05.713Z,8.10
2018-08-29T13:36:09.377Z,9.60
2018-08-29T13:39:13.072Z,9.13
2018-08-29T13:42:16.838Z,8.60
2018-08-29T13:45:20.529Z,8.77
2018-08-29T13:48:24.232Z,9.57
2018-08-29T13:51:27.861Z,8.40
2018-08-29T13:54:31.589Z,8.47
2018-08-29T13:57:35.323Z,8.87
2018-08-29T14:00:39.055Z,8.57
2018-08-29T14:03:42.764Z,9.00
2018-08-29T14:06:46.439Z,8.80
2018-08-29T14:09:50.202Z,9.13
2018-08-29T14:12:53.870Z,8.40
2018-08-29T14:15:57.564Z,8.50
2018-08-29T14:19:01.301Z,9.30
2018-08-29T14:22:05.340Z,8.93
2018-08-29T14:25:09.522Z,8.90
2018-08-29T14:28:13.309Z,9.20
2018-08-29T14:31:18.516Z,9.60
2018-08-29T14:34:22.190Z,10.07
2018-08-29T14:37:25.904Z,8.87
2018-08-29T14:40:29.594Z,9.50
2018-08-29T14:43:33.277Z,8.93
2018-08-29T14:46:36.842Z,9.83
2018-08-29T14:49:40.571Z,8.63
2018-08-29T14:52:44.372Z,9.37
2018-08-29T14:55:48.250Z,8.40
2018-08-29T14:58:51.845Z,9.30
2018-08-29T15:02:07.750Z,8.97
2018-08-29T15:05:11.363Z,9.77
2018-08-29T15:08:15.028Z,9.90
2018-08-29T15:11:18.759Z,9.10
2018-08-29T15:14:22.729Z,8.90
2018-08-29T15:17:26.473Z,9.20
2018-08-29T15:20:30.333Z,9.23
2018-08-29T15:23:34.073Z,9.40
2018-08-29T15:26:38.021Z,8.93
2018-08-29T15:29:41.626Z,9.57
2018-08-29T15:32:45.296Z,8.70
2018-08-29T15:35:49.182Z,9.13
2018-08-29T15:38:53.941Z,9.03
2018-08-29T15:41:57.636Z,8.27
2018-08-29T15:45:01.313Z,8.90
2018-08-29T15:48:05.065Z,9.47
2018-08-29T15:51:09.182Z,9.80
2018-08-29T15:54:13.089Z,10.00
2018-08-29T15:57:16.825Z,9.00
2018-08-29T16:00:20.585Z,9.40
2018-08-29T16:03:24.209Z,9.30
2018-08-29T16:06:27.947Z,8.83
2018-08-29T16:09:32.466Z,9.10
2018-08-29T16:12:36.220Z,9.47
2018-08-29T16:15:40.039Z,8.40
2018-08-29T16:18:43.670Z,8.53
2018-08-29T16:21:47.375Z,9.63
2018-08-29T16:24:51.096Z,9.20
2018-08-29T16:27:55.065Z,9.20
2018-08-29T16:30:58.819Z,9.50
2018-08-29T16:34:02.589Z,9.00
2018-08-29T16:37:07.304Z,9.30
2018-08-29T16:40:12.328Z,9.33
2018-08-29T16:43:16.001Z,9.63
2018-08-29T16:46:19.651Z,9.50
2018-08-29T16:49:23.390Z,10.10
2018-08-29T16:52:27.198Z,10.03
2018-08-29T16:55:30.880Z,9.73
2018-08-29T16:58:34.763Z,10.07
2018-08-29T17:01:38.511Z,11.27
2018-08-29T17:04:42.269Z,10.17
2018-08-29T17:07:45.995Z,18.53
2018-08-29T17:10:50.849Z,12.10
2018-08-29T17:13:54.621Z,10.00
2018-08-29T17:16:58.321Z,9.50
2018-08-29T17:20:02.144Z,9.50
2018-08-29T17:23:06.262Z,9.70
2018-08-29T17:26:10.156Z,9.50
2018-08-29T17:29:14.032Z,10.30
2018-08-29T17:32:18.059Z,10.30
2018-08-29T17:35:22.168Z,8.90
2018-08-29T17:38:26.405Z,9.23
2018-08-29T17:41:30.241Z,10.07
2018-08-29T17:44:34.000Z,9.60
2018-08-29T17:47:37.925Z,9.90
2018-08-29T17:50:41.739Z,9.63
2018-08-29T17:53:45.590Z,9.97
2018-08-29T17:56:49.347Z,9.20
2018-08-29T17:59:53.084Z,11.00
2018-08-29T18:02:56.789Z,9.73
2018-08-29T18:06:00.506Z,10.20
2018-08-29T18:09:06.270Z,10.20
2018-08-29T18:12:10.190Z,9.80
2018-08-29T18:15:13.960Z,10.23
2018-08-29T18:18:17.822Z,10.70
2018-08-29T18:21:21.518Z,10.90
2018-08-29T18:24:25.408Z,11.10
2018-08-29T18:27:29.069Z,10.87
2018-08-29T18:30:33.136Z,10.90
2018-08-29T18:33:36.972Z,10.97
2018-08-29T18:36:40.781Z,10.90
2018-08-29T18:39:44.547Z,11.13
2018-08-29T18:42:48.486Z,11.67
2018-08-29T18:45:52.260Z,12.53
2018-08-29T18:48:55.964Z,11.67
2018-08-29T18:51:59.664Z,13.23
2018-08-29T18:55:03.495Z,12.60
2018-08-29T18:58:07.309Z,12.73
2018-08-29T19:01:11.074Z,11.90
2018-08-29T19:04:14.951Z,12.60
2018-08-29T19:07:18.786Z,13.43
2018-08-29T19:10:22.585Z,13.43
2018-08-29T19:13:26.362Z,12.97
2018-08-29T19:16:30.200Z,13.00
2018-08-29T19:19:34.016Z,13.37
2018-08-29T19:22:37.743Z,13.50
2018-08-29T19:25:42.005Z,15.10
2018-08-29T19:28:46.960Z,12.40
2018-08-29T19:31:51.212Z,12.57
2018-08-29T19:34:55.222Z,12.17
2018-08-29T19:37:59.000Z,12.60
2018-08-29T19:41:04.073Z,12.07
2018-08-29T19:44:08.110Z,12.10
2018-08-29T19:47:11.909Z,12.20
2018-08-29T19:50:15.565Z,12.40
2018-08-29T19:53:19.398Z,12.37
2018-08-29T19:56:23.109Z,12.53
2018-08-29T19:59:26.832Z,12.10
2018-08-29T20:02:30.560Z,12.53
2018-08-29T20:05:34.435Z,11.70
2018-08-29T20:08:38.081Z,12.43
2018-08-29T20:11:41.909Z,13.10
2018-08-29T20:14:47.815Z,13.60
2018-08-29T20:17:51.357Z,14.03
2018-08-29T20:20:55.133Z,14.20
2018-08-29T20:23:58.869Z,14.13
2018-08-29T20:27:02.955Z,15.37
2018-08-29T20:30:06.857Z,13.70
2018-08-29T20:33:10.805Z,14.97
2018-08-29T20:36:14.710Z,14.90
2018-08-29T20:39:18.639Z,16.70
2018-08-29T20:42:23.412Z,16.83
2018-08-29T20:45:27.036Z,18.80
2018-08-29T20:48:30.813Z,20.40
2018-08-29T20:51:34.585Z,22.60
2018-08-29T20:54:38.586Z,23.70
2018-08-29T20:57:43.541Z,24.67
2018-08-29T21:00:47.479Z,24.93
2018-08-29T21:03:51.152Z,25.03
2018-08-29T21:06:54.999Z,27.07
2018-08-29T21:09:58.856Z,27.73
2018-08-29T21:13:02.589Z,28.37
2018-08-29T21:16:06.439Z,28.70
2018-08-29T21:19:10.154Z,29.00
2018-08-29T21:22:13.758Z,28.00
2018-08-29T21:25:17.715Z,28.60
2018-08-29T21:28:32.103Z,28.30
2018-08-29T21:31:47.022Z,27.37
2018-08-29T21:35:34.003Z,28.57
2018-08-29T21:38:37.754Z,27.60
2018-08-29T21:41:42.338Z,27.77
2018-08-29T21:44:57.436Z,27.83
2018-08-29T21:48:43.068Z,26.53
2018-08-29T21:52:22.846Z,25.20
2018-08-29T21:56:50.081Z,26.03
2018-08-29T22:00:35.792Z,25.90
2018-08-29T22:03:57.375Z,24.57
2018-08-29T22:07:01.213Z,25.87
2018-08-29T22:10:05.215Z,26.77
2018-08-29T22:13:08.972Z,26.80
2018-08-29T22:16:12.739Z,28.53
2018-08-29T22:19:16.395Z,27.90
2018-08-29T22:22:20.211Z,27.17
2018-08-29T22:25:24.797Z,27.93
2018-08-29T22:28:28.385Z,28.40
2018-08-29T22:31:32.045Z,28.70
2018-08-29T22:34:35.715Z,29.03
2018-08-29T22:37:39.352Z,28.57
2018-08-29T22:40:43.066Z,28.40
2018-08-29T22:43:46.638Z,29.60
2018-08-29T22:46:50.330Z,30.40
2018-08-29T22:49:53.970Z,28.80
2018-08-29T22:52:57.662Z,31.70
2018-08-29T22:56:01.461Z,30.07
2018-08-29T22:59:05.256Z,29.80
2018-08-29T23:02:08.913Z,31.60
2018-08-29T23:05:12.516Z,30.33
2018-08-29T23:08:16.210Z,31.57
2018-08-29T23:11:19.893Z,31.97
2018-08-29T23:14:23.632Z,32.07
2018-08-29T23:17:27.370Z,32.60
2018-08-29T23:20:30.981Z,32.10
2018-08-29T23:23:34.599Z,33.97
2018-08-29T23:26:38.321Z,32.90
2018-08-29T23:29:41.961Z,33.90
2018-08-29T23:32:45.643Z,31.80
2018-08-29T23:35:49.276Z,31.23
2018-08-29T23:38:52.932Z,34.03
2018-08-29T23:41:56.623Z,35.50
2018-08-29T23:45:01.322Z,34.07
2018-08-29T23:48:05.313Z,34.37
2018-08-29T23:51:09.293Z,34.57
2018-08-29T23:54:12.941Z,37.03
2018-08-29T23:57:16.554Z,34.53
